Wintergreen, Virginia
Current Conditions -  °F | °C
As of 6:55 PM on Saturday 25 Oct 2014 (Local Time) from KW13 Reporting Station
Clear Clear  
Wind Chill: 62°   Ceiling: Unl
Heat Index: 62°   Visibility: 10mi
Dew Point: 41°   Wind: 3mph
Humidity: 46%   Direction: 170°S
Pressure: 29.82"   Gusts: NA
Location:  37.8814°N, 78.882°W
Report Text: KW13 252255Z AUTO 17003KT 10SM CLR 17/05 A2982 RMK AO1 T01650048
Loading
Personal Weather Stations






























Interactive Weather Map
Tropical Storm Tracking
New forecast layout! Learn more

10-Day Weather Forecast

Advertisements
Track Severe Weather on mobile